createdAt,value
2023-12-20T00:01:33.481Z,46.66
2023-12-20T00:04:02.020Z,46.38
2023-12-20T00:06:30.469Z,46.56
2023-12-20T00:08:59.057Z,46.71
2023-12-20T00:11:27.376Z,46.93
2023-12-20T00:13:55.722Z,46.86
2023-12-20T00:16:25.483Z,47.04
2023-12-20T00:18:53.920Z,46.96
2023-12-20T00:21:22.327Z,46.93
2023-12-20T00:23:50.648Z,46.98
2023-12-20T00:26:19.045Z,46.49
2023-12-20T00:28:47.469Z,46.57
2023-12-20T00:31:16.009Z,47.05
2023-12-20T00:33:47.693Z,46.57
2023-12-20T00:36:16.138Z,46.95
2023-12-20T00:38:45.593Z,46.70
2023-12-20T00:41:13.995Z,46.59
2023-12-20T00:43:42.283Z,46.61
2023-12-20T00:46:10.830Z,47.06
2023-12-20T00:48:39.273Z,46.96
2023-12-20T00:51:09.333Z,47.27
2023-12-20T00:53:37.657Z,47.43
2023-12-20T00:56:06.443Z,47.31
2023-12-20T00:58:35.032Z,46.99
2023-12-20T01:01:03.640Z,47.64
2023-12-20T01:03:32.532Z,47.34
2023-12-20T01:06:01.106Z,47.47
2023-12-20T01:08:30.857Z,47.09
2023-12-20T01:10:59.227Z,47.29
2023-12-20T01:13:27.608Z,47.21
2023-12-20T01:15:56.753Z,47.05
2023-12-20T01:18:25.078Z,47.43
2023-12-20T01:20:53.465Z,47.35
2023-12-20T01:23:21.865Z,47.09
2023-12-20T01:25:51.618Z,47.11
2023-12-20T01:28:19.974Z,47.31
2023-12-20T01:30:48.490Z,47.40
2023-12-20T01:33:16.790Z,47.35
2023-12-20T01:35:45.134Z,47.10
2023-12-20T01:38:13.563Z,47.19
2023-12-20T01:40:41.915Z,47.22
2023-12-20T01:43:13.535Z,47.53
2023-12-20T01:45:42.412Z,47.23
2023-12-20T01:48:12.219Z,47.30
2023-12-20T01:50:41.829Z,47.37
2023-12-20T01:53:12.722Z,47.34
2023-12-20T01:55:42.760Z,47.16
2023-12-20T01:58:13.548Z,47.44
2023-12-20T02:00:42.328Z,47.48
2023-12-20T02:03:10.997Z,47.13
2023-12-20T02:05:41.165Z,47.04
2023-12-20T02:08:09.851Z,46.95
2023-12-20T02:10:38.271Z,47.27
2023-12-20T02:13:06.947Z,46.92
2023-12-20T02:15:38.083Z,46.83
2023-12-20T02:18:07.502Z,47.00
2023-12-20T02:20:35.999Z,47.17
2023-12-20T02:23:06.041Z,46.83
2023-12-20T02:25:34.393Z,47.31
2023-12-20T02:28:03.029Z,47.15
2023-12-20T02:30:31.823Z,46.51
2023-12-20T02:33:01.852Z,46.73
2023-12-20T02:35:30.246Z,46.93
2023-12-20T02:37:58.620Z,47.08
2023-12-20T02:40:28.419Z,47.11
2023-12-20T02:42:56.818Z,46.82
2023-12-20T02:45:25.176Z,46.68
2023-12-20T02:47:53.541Z,46.87
2023-12-20T02:50:22.051Z,46.67
2023-12-20T02:52:50.352Z,46.93
2023-12-20T02:55:18.700Z,46.74
2023-12-20T02:57:48.717Z,47.05
2023-12-20T03:00:17.870Z,47.09
2023-12-20T03:02:46.214Z,46.72
2023-12-20T03:05:14.687Z,46.33
2023-12-20T03:07:43.277Z,46.28
2023-12-20T03:10:19.806Z,45.98
2023-12-20T03:12:53.566Z,45.61
2023-12-20T03:15:21.985Z,45.01
2023-12-20T03:17:50.754Z,44.83
2023-12-20T03:20:19.480Z,44.71
2023-12-20T03:22:47.801Z,44.72
2023-12-20T03:25:16.607Z,44.66
2023-12-20T03:27:45.220Z,44.50
2023-12-20T03:30:15.787Z,44.24
2023-12-20T03:32:44.197Z,44.52
2023-12-20T03:35:12.721Z,44.36
2023-12-20T03:37:41.138Z,44.34
2023-12-20T03:40:10.752Z,44.29
2023-12-20T03:42:39.268Z,44.44
2023-12-20T03:45:09.339Z,44.36
2023-12-20T03:47:39.048Z,44.29
2023-12-20T03:50:09.127Z,44.23
2023-12-20T03:52:37.674Z,44.10
2023-12-20T03:55:07.371Z,44.22
2023-12-20T03:57:35.762Z,44.33
2023-12-20T04:00:04.302Z,44.35
2023-12-20T04:02:32.682Z,44.30
2023-12-20T04:05:02.431Z,44.28
2023-12-20T04:07:31.059Z,44.12
2023-12-20T04:09:59.568Z,44.39
2023-12-20T04:12:29.498Z,44.20
2023-12-20T04:14:58.223Z,44.38
2023-12-20T04:17:26.582Z,44.30
2023-12-20T04:19:55.158Z,44.19
2023-12-20T04:22:25.336Z,44.06
2023-12-20T04:24:53.760Z,44.04
2023-12-20T04:27:22.148Z,43.95
2023-12-20T04:29:50.500Z,43.95
2023-12-20T04:32:18.839Z,43.98
2023-12-20T04:34:47.259Z,43.63
2023-12-20T04:37:15.685Z,43.42
2023-12-20T04:39:45.491Z,43.64
2023-12-20T04:42:13.979Z,43.73
2023-12-20T04:44:42.344Z,43.60
2023-12-20T04:47:10.724Z,43.76
2023-12-20T04:49:39.148Z,43.79
2023-12-20T04:52:08.181Z,43.63
2023-12-20T04:54:36.550Z,43.83
2023-12-20T04:57:06.765Z,43.67
2023-12-20T04:59:35.181Z,43.80
2023-12-20T05:02:03.524Z,43.97
2023-12-20T05:04:31.985Z,44.03
2023-12-20T05:07:00.546Z,44.04
2023-12-20T05:09:28.975Z,44.08
2023-12-20T05:11:57.319Z,43.93
2023-12-20T05:14:28.281Z,44.28
2023-12-20T05:16:57.683Z,44.07
2023-12-20T05:19:26.438Z,44.14
2023-12-20T05:21:54.947Z,43.89
2023-12-20T05:24:23.340Z,44.29
2023-12-20T05:26:53.740Z,44.32
2023-12-20T05:29:22.716Z,43.80
2023-12-20T05:31:52.478Z,44.19
2023-12-20T05:34:21.565Z,43.78
2023-12-20T05:36:50.086Z,43.95
2023-12-20T05:39:18.506Z,43.84
2023-12-20T05:41:46.920Z,43.88
2023-12-20T05:44:15.294Z,44.08
2023-12-20T05:46:43.643Z,43.98
2023-12-20T05:49:14.858Z,43.75
2023-12-20T05:51:43.366Z,43.67
2023-12-20T05:54:12.233Z,43.79
2023-12-20T05:56:40.550Z,43.87
2023-12-20T05:59:09.228Z,43.88
2023-12-20T06:01:37.676Z,43.61
2023-12-20T06:04:06.326Z,43.58
2023-12-20T06:06:36.350Z,43.59
2023-12-20T06:09:05.217Z,43.60
2023-12-20T06:11:33.555Z,43.52
2023-12-20T06:14:01.956Z,43.50
2023-12-20T06:16:30.355Z,43.42
2023-12-20T06:18:58.908Z,43.21
2023-12-20T06:21:27.318Z,43.13
2023-12-20T06:23:57.118Z,42.97
2023-12-20T06:26:25.499Z,42.94
2023-12-20T06:28:53.942Z,43.01
2023-12-20T06:31:22.317Z,42.72
2023-12-20T06:33:58.508Z,42.58
2023-12-20T06:36:27.051Z,42.64
2023-12-20T06:38:56.831Z,42.41
2023-12-20T06:41:25.662Z,42.37
2023-12-20T06:43:54.337Z,42.30
2023-12-20T06:46:21.921Z,42.49
2023-12-20T06:48:50.515Z,42.37
2023-12-20T06:51:20.964Z,42.33
2023-12-20T06:53:49.340Z,42.32
2023-12-20T06:56:19.867Z,42.26
2023-12-20T06:58:48.827Z,41.99
2023-12-20T07:01:18.664Z,42.33
2023-12-20T07:03:47.376Z,42.23
2023-12-20T07:06:17.905Z,42.05
2023-12-20T07:08:46.485Z,41.94
2023-12-20T07:11:15.015Z,41.91
2023-12-20T07:13:44.778Z,41.72
2023-12-20T07:16:13.145Z,41.54
2023-12-20T07:18:41.805Z,41.45
2023-12-20T07:21:10.234Z,41.45
2023-12-20T07:23:38.578Z,41.31
2023-12-20T07:26:06.924Z,41.66
2023-12-20T07:28:35.732Z,41.88
2023-12-20T07:31:06.038Z,42.46
2023-12-20T07:33:39.359Z,43.04
2023-12-20T07:36:09.410Z,43.59
2023-12-20T07:38:38.027Z,44.10
2023-12-20T07:41:06.641Z,44.77
2023-12-20T07:43:35.357Z,45.23
2023-12-20T07:46:09.153Z,45.76
2023-12-20T07:48:38.284Z,45.97
2023-12-20T07:51:08.764Z,46.38
2023-12-20T07:53:37.306Z,46.50
2023-12-20T07:56:16.541Z,46.80
2023-12-20T07:58:51.741Z,47.36
2023-12-20T08:01:23.784Z,48.26
2023-12-20T08:03:52.979Z,48.26
2023-12-20T08:06:21.815Z,48.56
2023-12-20T08:08:55.862Z,48.67
2023-12-20T08:11:32.608Z,48.12
2023-12-20T08:14:01.461Z,48.13
2023-12-20T08:16:31.293Z,47.47
2023-12-20T08:18:59.900Z,47.29
2023-12-20T08:21:28.698Z,47.37
2023-12-20T08:23:57.175Z,46.83
2023-12-20T08:26:25.630Z,46.38
2023-12-20T08:28:54.115Z,46.31
2023-12-20T08:31:23.335Z,45.97
2023-12-20T08:33:54.510Z,45.93
2023-12-20T08:36:24.629Z,45.80
2023-12-20T08:38:53.604Z,44.92
2023-12-20T08:41:22.279Z,44.99
2023-12-20T08:43:50.732Z,44.72
2023-12-20T08:46:19.312Z,44.88
2023-12-20T08:48:47.975Z,44.69
2023-12-20T08:51:17.941Z,44.32
2023-12-20T08:53:48.838Z,44.65
2023-12-20T08:56:19.171Z,44.57
2023-12-20T08:58:48.069Z,44.46
2023-12-20T09:01:17.143Z,44.32
2023-12-20T09:03:45.812Z,43.60
2023-12-20T09:06:14.522Z,43.76
2023-12-20T09:08:44.326Z,43.98
2023-12-20T09:11:13.221Z,44.16
2023-12-20T09:13:42.067Z,44.09
2023-12-20T09:16:11.042Z,43.90
2023-12-20T09:18:39.520Z,44.23
2023-12-20T09:21:07.914Z,44.60
2023-12-20T09:23:37.793Z,44.94
2023-12-20T09:26:07.734Z,45.14
2023-12-20T09:28:38.400Z,45.61
2023-12-20T09:31:07.872Z,46.17
2023-12-20T09:33:36.586Z,46.50
2023-12-20T09:36:05.700Z,46.48
2023-12-20T09:38:34.157Z,46.35
2023-12-20T09:41:05.053Z,46.23
2023-12-20T09:43:40.141Z,46.37
2023-12-20T09:46:09.661Z,46.42
2023-12-20T09:48:39.658Z,46.34
2023-12-20T09:51:08.428Z,46.37
2023-12-20T09:53:41.615Z,46.96
2023-12-20T09:56:10.429Z,47.31
2023-12-20T09:58:41.554Z,47.61
2023-12-20T10:01:11.121Z,47.62
2023-12-20T10:03:43.366Z,47.90
2023-12-20T10:06:12.830Z,48.70
2023-12-20T10:08:41.613Z,48.44
2023-12-20T10:11:10.040Z,48.63
2023-12-20T10:13:42.685Z,48.76
2023-12-20T10:16:11.590Z,49.10
2023-12-20T10:18:40.451Z,49.24
2023-12-20T10:21:11.387Z,49.11
2023-12-20T10:23:42.125Z,49.26
2023-12-20T10:26:11.164Z,49.45
2023-12-20T10:28:41.052Z,49.30
2023-12-20T10:31:09.623Z,48.79
2023-12-20T10:33:38.248Z,48.83
2023-12-20T10:36:09.120Z,48.81
2023-12-20T10:38:40.927Z,48.54
2023-12-20T10:41:12.189Z,48.78
2023-12-20T10:43:42.995Z,48.79
2023-12-20T10:46:11.597Z,48.71
2023-12-20T10:48:41.867Z,48.20
2023-12-20T10:51:11.235Z,48.61
2023-12-20T10:53:42.989Z,48.35
2023-12-20T10:56:17.929Z,48.37
2023-12-20T10:58:48.925Z,47.94
2023-12-20T11:01:19.369Z,47.72
2023-12-20T11:03:52.256Z,47.83
2023-12-20T11:06:34.793Z,47.76
2023-12-20T11:09:14.700Z,47.81
2023-12-20T11:12:01.634Z,47.37
2023-12-20T11:14:41.401Z,47.45
2023-12-20T11:17:11.196Z,47.59
2023-12-20T11:20:13.375Z,47.31
2023-12-20T11:22:54.217Z,47.49
2023-12-20T11:25:23.030Z,47.07
2023-12-20T11:28:10.183Z,46.99
2023-12-20T11:30:49.889Z,46.92
2023-12-20T11:33:19.005Z,46.99
2023-12-20T11:35:49.609Z,47.27
2023-12-20T11:38:18.151Z,47.08
2023-12-20T11:40:46.742Z,47.04
2023-12-20T11:43:31.438Z,47.14
2023-12-20T11:46:07.086Z,47.05
2023-12-20T11:48:37.598Z,46.99
2023-12-20T11:51:11.910Z,46.91
2023-12-20T11:53:40.331Z,46.77
2023-12-20T11:56:09.449Z,46.85
2023-12-20T11:58:38.429Z,46.66
2023-12-20T12:01:10.207Z,46.39
2023-12-20T12:03:38.780Z,46.34
2023-12-20T12:06:09.024Z,46.35
2023-12-20T12:08:38.996Z,46.42
2023-12-20T12:11:07.744Z,46.23
2023-12-20T12:13:36.463Z,46.18
2023-12-20T12:16:06.685Z,45.71
2023-12-20T12:18:36.893Z,45.26
2023-12-20T12:21:10.579Z,45.37
2023-12-20T12:23:44.099Z,44.97
2023-12-20T12:26:12.537Z,45.19
2023-12-20T12:28:43.502Z,44.72
2023-12-20T12:31:15.925Z,44.27
2023-12-20T12:33:46.330Z,44.14
2023-12-20T12:36:17.306Z,43.93
2023-12-20T12:38:45.788Z,43.95
2023-12-20T12:41:16.517Z,44.09
2023-12-20T12:43:44.950Z,43.90
2023-12-20T12:46:13.871Z,44.06
2023-12-20T12:48:43.990Z,44.27
2023-12-20T12:51:15.766Z,44.36
2023-12-20T12:53:44.298Z,44.14
2023-12-20T12:56:14.942Z,44.10
2023-12-20T12:58:43.410Z,44.29
2023-12-20T13:01:11.842Z,44.32
2023-12-20T13:03:40.341Z,44.29
2023-12-20T13:06:10.167Z,44.05
2023-12-20T13:08:40.108Z,44.12
2023-12-20T13:11:08.695Z,44.43
2023-12-20T13:13:37.751Z,44.49
2023-12-20T13:16:07.337Z,44.55
2023-12-20T13:18:35.976Z,44.38
2023-12-20T13:21:04.637Z,44.31
2023-12-20T13:23:33.037Z,44.20
2023-12-20T13:26:02.843Z,44.29
2023-12-20T13:28:31.410Z,44.15
2023-12-20T13:31:00.082Z,44.14
2023-12-20T13:33:28.614Z,43.87
2023-12-20T13:35:59.516Z,44.01
2023-12-20T13:38:28.033Z,44.18
2023-12-20T13:40:56.401Z,44.13
2023-12-20T13:43:26.227Z,44.12
2023-12-20T13:45:54.760Z,44.19
2023-12-20T13:48:23.277Z,44.08
2023-12-20T13:50:51.700Z,44.24
2023-12-20T13:53:20.312Z,44.27
2023-12-20T13:55:48.707Z,44.29
2023-12-20T13:58:17.179Z,44.50
2023-12-20T14:00:47.142Z,44.52
2023-12-20T14:03:15.595Z,44.45
2023-12-20T14:05:44.223Z,44.52
2023-12-20T14:08:12.874Z,44.53
2023-12-20T14:10:41.472Z,44.60
2023-12-20T14:13:09.979Z,44.76
2023-12-20T14:15:38.550Z,44.97
2023-12-20T14:18:10.004Z,44.96
2023-12-20T14:20:40.775Z,44.87
2023-12-20T14:23:09.180Z,45.08
2023-12-20T14:25:46.176Z,45.22
2023-12-20T14:28:20.305Z,45.24
2023-12-20T14:30:50.415Z,45.34
2023-12-20T14:33:22.868Z,45.28
2023-12-20T14:35:51.689Z,45.41
2023-12-20T14:38:20.662Z,45.50
2023-12-20T14:40:49.171Z,46.03
2023-12-20T14:43:17.910Z,45.99
2023-12-20T14:45:46.714Z,45.98
2023-12-20T14:48:15.252Z,45.79
2023-12-20T14:50:45.456Z,45.91
2023-12-20T14:53:13.887Z,45.87
2023-12-20T14:55:42.361Z,46.10
2023-12-20T14:58:10.911Z,46.05
2023-12-20T15:00:39.884Z,45.97
2023-12-20T15:03:08.484Z,46.37
2023-12-20T15:05:37.608Z,46.58
2023-12-20T15:08:08.527Z,46.64
2023-12-20T15:10:37.414Z,46.81
2023-12-20T15:13:07.332Z,46.46
2023-12-20T15:15:36.141Z,46.44
2023-12-20T15:18:05.287Z,46.32
2023-12-20T15:20:35.002Z,46.66
2023-12-20T15:23:08.033Z,46.65
2023-12-20T15:25:37.964Z,46.66
2023-12-20T15:28:06.674Z,46.45
2023-12-20T15:30:37.581Z,46.60
2023-12-20T15:33:07.836Z,46.65
2023-12-20T15:35:36.614Z,46.56
2023-12-20T15:38:06.202Z,46.90
2023-12-20T15:40:34.782Z,46.77
2023-12-20T15:43:04.727Z,46.71
2023-12-20T15:45:33.126Z,46.65
2023-12-20T15:48:01.831Z,46.51
2023-12-20T15:50:30.336Z,46.50
2023-12-20T15:52:58.754Z,46.28
2023-12-20T15:55:27.290Z,46.53
2023-12-20T15:57:56.000Z,46.34
2023-12-20T16:00:25.833Z,46.32
2023-12-20T16:02:54.492Z,46.32
2023-12-20T16:05:23.430Z,46.13
2023-12-20T16:07:52.477Z,46.13
2023-12-20T16:10:21.288Z,46.15
2023-12-20T16:12:48.722Z,46.04
2023-12-20T16:15:19.063Z,46.14
2023-12-20T16:17:49.142Z,46.09
2023-12-20T16:20:18.217Z,46.37
2023-12-20T16:22:46.700Z,46.27
2023-12-20T16:25:15.113Z,46.06
2023-12-20T16:27:46.305Z,46.27
2023-12-20T16:30:16.988Z,46.30
2023-12-20T16:32:45.708Z,46.45
2023-12-20T16:35:15.969Z,46.19
2023-12-20T16:37:44.564Z,46.53
2023-12-20T16:40:14.159Z,46.63
2023-12-20T16:42:42.708Z,46.35
2023-12-20T16:45:11.761Z,46.97
2023-12-20T16:47:40.188Z,46.96
2023-12-20T16:50:10.890Z,46.62
2023-12-20T16:52:41.729Z,47.12
2023-12-20T16:55:12.860Z,47.04
2023-12-20T16:57:41.699Z,47.18
2023-12-20T17:00:11.068Z,47.20
2023-12-20T17:02:40.704Z,47.19
2023-12-20T17:05:11.537Z,47.06
2023-12-20T17:07:41.884Z,47.12
2023-12-20T17:10:11.182Z,46.92
2023-12-20T17:12:39.588Z,47.19
2023-12-20T17:15:09.222Z,46.70
2023-12-20T17:17:38.108Z,46.67
2023-12-20T17:20:08.819Z,46.74
2023-12-20T17:22:37.236Z,46.47
2023-12-20T17:25:12.604Z,46.30
2023-12-20T17:27:42.212Z,46.27
2023-12-20T17:30:12.214Z,46.49
2023-12-20T17:32:41.150Z,46.31
2023-12-20T17:35:10.184Z,46.08
2023-12-20T17:37:38.684Z,45.95
2023-12-20T17:40:12.260Z,46.19
2023-12-20T17:42:40.617Z,45.96
2023-12-20T17:45:09.444Z,46.15
2023-12-20T17:47:38.195Z,46.05
2023-12-20T17:50:08.247Z,46.38
2023-12-20T17:52:36.759Z,46.37
2023-12-20T17:55:07.232Z,46.09
2023-12-20T17:57:35.676Z,46.22
2023-12-20T18:00:16.419Z,46.49
2023-12-20T18:02:45.758Z,46.17
2023-12-20T18:05:16.229Z,46.45
2023-12-20T18:07:48.021Z,46.15
2023-12-20T18:10:20.585Z,46.46
2023-12-20T18:12:50.567Z,46.44
2023-12-20T18:15:20.979Z,46.38
2023-12-20T18:17:51.014Z,46.36
2023-12-20T18:20:20.994Z,46.52
2023-12-20T18:22:50.810Z,46.17
2023-12-20T18:25:23.766Z,46.65
2023-12-20T18:27:54.034Z,46.18
2023-12-20T18:30:26.041Z,46.07
2023-12-20T18:32:56.493Z,46.00
2023-12-20T18:35:27.761Z,45.67
2023-12-20T18:37:58.412Z,45.62
2023-12-20T18:40:30.650Z,45.63
2023-12-20T18:43:01.234Z,45.29
2023-12-20T18:45:32.627Z,44.72
2023-12-20T18:48:03.391Z,44.21
2023-12-20T18:50:34.318Z,44.55
2023-12-20T18:53:04.725Z,44.29
2023-12-20T18:55:36.869Z,44.30
2023-12-20T18:58:07.748Z,44.08
2023-12-20T19:00:39.263Z,44.18
2023-12-20T19:03:10.199Z,44.24
2023-12-20T19:05:40.753Z,44.23
2023-12-20T19:08:11.521Z,43.83
2023-12-20T19:10:43.804Z,44.25
2023-12-20T19:13:14.848Z,43.96
2023-12-20T19:15:47.699Z,44.08
2023-12-20T19:18:20.932Z,43.76
2023-12-20T19:20:51.643Z,44.10
2023-12-20T19:23:23.499Z,43.99
2023-12-20T19:25:55.898Z,43.95
2023-12-20T19:28:26.842Z,43.69
2023-12-20T19:30:59.701Z,44.07
2023-12-20T19:33:30.775Z,43.88
2023-12-20T19:36:01.532Z,43.89
2023-12-20T19:38:32.848Z,43.89
2023-12-20T19:41:05.893Z,44.06
2023-12-20T19:43:37.500Z,43.70
2023-12-20T19:46:09.257Z,43.95
2023-12-20T19:48:40.514Z,43.34
2023-12-20T19:51:12.865Z,43.36
2023-12-20T19:53:43.972Z,43.58
2023-12-20T19:56:17.734Z,43.55
2023-12-20T19:58:49.170Z,43.31
2023-12-20T20:01:20.695Z,43.75
2023-12-20T20:03:52.402Z,43.68
2023-12-20T20:06:23.863Z,44.12
2023-12-20T20:08:56.927Z,43.92
2023-12-20T20:11:35.314Z,43.82
2023-12-20T20:14:08.385Z,44.58
2023-12-20T20:16:39.601Z,44.42
2023-12-20T20:19:10.907Z,44.27
2023-12-20T20:21:45.000Z,44.29
2023-12-20T20:24:16.450Z,44.30
2023-12-20T20:26:49.337Z,44.49
2023-12-20T20:29:20.725Z,44.09
2023-12-20T20:31:51.846Z,44.00
2023-12-20T20:34:23.084Z,44.03
2023-12-20T20:36:53.662Z,43.56
2023-12-20T20:39:24.659Z,43.88
2023-12-20T20:41:57.288Z,43.69
2023-12-20T20:44:28.246Z,43.60
2023-12-20T20:46:59.621Z,43.45
2023-12-20T20:49:30.825Z,43.50
2023-12-20T20:52:01.691Z,43.34
2023-12-20T20:54:32.917Z,43.00
2023-12-20T20:57:05.512Z,42.71
2023-12-20T20:59:36.250Z,43.01
2023-12-20T21:02:05.036Z,42.82
2023-12-20T21:04:33.939Z,42.94
2023-12-20T21:07:02.529Z,42.42
2023-12-20T21:09:30.934Z,42.74
2023-12-20T21:11:59.335Z,42.59
2023-12-20T21:14:29.044Z,42.17
2023-12-20T21:16:57.458Z,42.62
2023-12-20T21:19:25.996Z,42.14
2023-12-20T21:21:54.429Z,41.97
2023-12-20T21:24:22.874Z,41.86
2023-12-20T21:26:51.214Z,42.32
2023-12-20T21:29:19.601Z,42.33
2023-12-20T21:31:49.453Z,42.22
2023-12-20T21:34:18.002Z,41.85
2023-12-20T21:36:46.469Z,41.60
2023-12-20T21:39:15.227Z,41.60
2023-12-20T21:41:43.616Z,41.72
2023-12-20T21:44:11.978Z,42.06
2023-12-20T21:46:41.750Z,41.46
2023-12-20T21:49:11.682Z,41.75
2023-12-20T21:51:40.140Z,41.80
2023-12-20T21:54:08.524Z,42.04
2023-12-20T21:56:37.916Z,41.43
2023-12-20T21:59:06.334Z,41.80
2023-12-20T22:01:34.851Z,41.63
2023-12-20T22:04:03.381Z,41.84
2023-12-20T22:06:33.421Z,42.04
2023-12-20T22:09:01.800Z,42.05
2023-12-20T22:11:30.165Z,41.95
2023-12-20T22:13:58.603Z,42.00
2023-12-20T22:16:27.102Z,41.69
2023-12-20T22:18:58.518Z,42.06
2023-12-20T22:21:26.940Z,41.64
2023-12-20T22:23:55.731Z,42.05
2023-12-20T22:26:24.352Z,42.14
2023-12-20T22:28:53.150Z,42.01
2023-12-20T22:31:21.608Z,42.05
2023-12-20T22:33:50.026Z,41.80
2023-12-20T22:36:19.744Z,41.80
2023-12-20T22:38:48.148Z,41.75
2023-12-20T22:41:18.295Z,41.71
2023-12-20T22:43:46.671Z,41.87
2023-12-20T22:46:15.271Z,41.95
2023-12-20T22:48:43.892Z,41.63
2023-12-20T22:51:12.327Z,41.71
2023-12-20T22:53:40.755Z,41.29
2023-12-20T22:56:09.698Z,41.76
2023-12-20T22:58:39.487Z,41.80
2023-12-20T23:01:08.033Z,41.23
2023-12-20T23:03:37.613Z,41.50
2023-12-20T23:06:07.039Z,41.50
2023-12-20T23:08:35.514Z,41.12
2023-12-20T23:11:03.931Z,41.29
2023-12-20T23:13:32.596Z,41.10
2023-12-20T23:16:02.511Z,41.74
2023-12-20T23:18:30.968Z,41.51
2023-12-20T23:20:59.426Z,41.44
2023-12-20T23:23:28.538Z,41.84
2023-12-20T23:25:56.940Z,41.59
2023-12-20T23:28:25.437Z,41.42
2023-12-20T23:30:53.887Z,41.51
2023-12-20T23:33:24.399Z,41.13
2023-12-20T23:35:52.872Z,40.85
2023-12-20T23:38:21.223Z,41.02
2023-12-20T23:40:49.613Z,41.10
2023-12-20T23:43:18.112Z,41.30
2023-12-20T23:45:46.514Z,41.54
2023-12-20T23:48:14.933Z,41.24
2023-12-20T23:50:44.831Z,41.33
2023-12-20T23:53:13.277Z,41.31
2023-12-20T23:55:41.946Z,41.19
2023-12-20T23:58:10.572Z,41.14
